Southeast Iowa Regional Airport Burlington US
ICAO: KBRL
IATA: BRL
Category: Medium
Scheduled Services: Yes

Elevation: 698 ft
TransAlt. 18000 ft.

Airport Communications:
ASOS:118.025
CHICAGO CNTR:135.6
FORT DODGE RDO:122.65
CTAF/UNICOM:123

KBRL Zoom In..

Runways:

(A) RW 12 length 5351 ft width 100 ft
---- / hdg 119

(B) RW 18 length 6701 ft width 150 ft
---- / hdg 179

(C) RW 30 length 5351 ft width 100 ft
---- / hdg 299

(D) RW 36 length 6701 ft width 150 ft
ILS 108.90 / hdg 359

Location; KBRL
Day. 21 / Time. 14.53 Zulu
* Altimeter: 30.03
* Temperature: 17° c. 62.6°f.
* Wind from: 130° Speed 07 kn.
Dewpoint: 16° c.
Visibility: 1 m.
Clouds: Overcast 300 ft.
Conditions: Mist.

KBRL 211453Z AUTO 13007KT 1 3/4SM BR OVC003 17/16 A3003 RMK AO2 SLP166 60002 T01670161 58001


Wind From 130°
Speed 07 kn.

 
 
jpsmedia.com for Web Design SOUNDCLOUD worldairports.se 2018   terms of use